sensor_id;sensor_type;location;lat;lon;timestamp;temperature;humidity
431;DHT22;202;48.764;9.172;2023-07-29T00:00:04;19.80;79.80
431;DHT22;202;48.764;9.172;2023-07-29T00:02:32;19.90;79.70
431;DHT22;202;48.764;9.172;2023-07-29T00:04:59;19.80;79.20
431;DHT22;202;48.764;9.172;2023-07-29T00:07:26;19.90;78.30
431;DHT22;202;48.764;9.172;2023-07-29T00:09:53;19.90;78.00
431;DHT22;202;48.764;9.172;2023-07-29T00:12:25;20.00;77.20
431;DHT22;202;48.764;9.172;2023-07-29T00:14:52;19.90;77.80
431;DHT22;202;48.764;9.172;2023-07-29T00:17:19;19.90;77.80
431;DHT22;202;48.764;9.172;2023-07-29T00:19:46;20.00;77.60
431;DHT22;202;48.764;9.172;2023-07-29T00:22:13;20.00;77.20
431;DHT22;202;48.764;9.172;2023-07-29T00:24:51;20.00;77.00
431;DHT22;202;48.764;9.172;2023-07-29T00:27:19;20.00;77.00
431;DHT22;202;48.764;9.172;2023-07-29T00:29:47;20.10;75.70
431;DHT22;202;48.764;9.172;2023-07-29T00:32:14;20.10;75.90
431;DHT22;202;48.764;9.172;2023-07-29T00:34:41;20.20;75.70
431;DHT22;202;48.764;9.172;2023-07-29T00:37:08;20.20;74.60
431;DHT22;202;48.764;9.172;2023-07-29T00:39:36;20.20;75.40
431;DHT22;202;48.764;9.172;2023-07-29T00:42:04;20.20;74.70
431;DHT22;202;48.764;9.172;2023-07-29T00:44:33;20.20;74.50
431;DHT22;202;48.764;9.172;2023-07-29T00:47:03;20.20;74.20
431;DHT22;202;48.764;9.172;2023-07-29T00:49:34;20.30;73.80
431;DHT22;202;48.764;9.172;2023-07-29T00:52:02;20.30;74.50
431;DHT22;202;48.764;9.172;2023-07-29T00:54:29;20.30;74.70
431;DHT22;202;48.764;9.172;2023-07-29T00:56:56;20.30;73.30
431;DHT22;202;48.764;9.172;2023-07-29T00:59:23;20.30;72.60
431;DHT22;202;48.764;9.172;2023-07-29T01:01:50;20.30;72.60
431;DHT22;202;48.764;9.172;2023-07-29T01:04:18;20.20;74.10
431;DHT22;202;48.764;9.172;2023-07-29T01:06:50;20.20;73.60
431;DHT22;202;48.764;9.172;2023-07-29T01:09:25;20.20;72.80
431;DHT22;202;48.764;9.172;2023-07-29T01:12:01;20.10;75.30
431;DHT22;202;48.764;9.172;2023-07-29T01:14:36;20.00;75.30
431;DHT22;202;48.764;9.172;2023-07-29T01:17:09;19.90;76.60
431;DHT22;202;48.764;9.172;2023-07-29T01:19:55;20.00;76.10
431;DHT22;202;48.764;9.172;2023-07-29T01:22:26;20.00;75.90
431;DHT22;202;48.764;9.172;2023-07-29T01:24:57;20.00;76.00
431;DHT22;202;48.764;9.172;2023-07-29T01:27:25;20.00;76.40
431;DHT22;202;48.764;9.172;2023-07-29T01:29:52;20.00;76.30
431;DHT22;202;48.764;9.172;2023-07-29T01:32:25;20.00;76.20
431;DHT22;202;48.764;9.172;2023-07-29T01:34:59;19.80;80.10
431;DHT22;202;48.764;9.172;2023-07-29T01:37:29;19.70;79.50
431;DHT22;202;48.764;9.172;2023-07-29T01:39:59;19.80;78.50
431;DHT22;202;48.764;9.172;2023-07-29T01:42:27;19.90;77.70
431;DHT22;202;48.764;9.172;2023-07-29T01:44:56;19.80;78.70
431;DHT22;202;48.764;9.172;2023-07-29T01:47:23;19.80;78.70
431;DHT22;202;48.764;9.172;2023-07-29T01:49:50;19.90;77.10
431;DHT22;202;48.764;9.172;2023-07-29T01:52:18;19.90;77.30
431;DHT22;202;48.764;9.172;2023-07-29T01:54:45;20.00;76.60
431;DHT22;202;48.764;9.172;2023-07-29T01:57:13;20.00;77.20
431;DHT22;202;48.764;9.172;2023-07-29T01:59:40;20.00;76.10
431;DHT22;202;48.764;9.172;2023-07-29T02:02:07;20.00;76.20
431;DHT22;202;48.764;9.172;2023-07-29T02:04:34;20.00;75.20
431;DHT22;202;48.764;9.172;2023-07-29T02:07:03;19.90;76.70
431;DHT22;202;48.764;9.172;2023-07-29T02:09:30;19.90;76.70
431;DHT22;202;48.764;9.172;2023-07-29T02:11:57;19.80;76.20
431;DHT22;202;48.764;9.172;2023-07-29T02:14:26;19.90;76.70
431;DHT22;202;48.764;9.172;2023-07-29T02:16:56;19.80;76.90
431;DHT22;202;48.764;9.172;2023-07-29T02:19:25;19.70;78.30
431;DHT22;202;48.764;9.172;2023-07-29T02:21:54;19.70;78.20
431;DHT22;202;48.764;9.172;2023-07-29T02:24:21;19.70;78.30
431;DHT22;202;48.764;9.172;2023-07-29T02:26:49;19.70;77.50
431;DHT22;202;48.764;9.172;2023-07-29T02:29:19;19.60;79.80
431;DHT22;202;48.764;9.172;2023-07-29T02:31:47;19.60;79.20
431;DHT22;202;48.764;9.172;2023-07-29T02:34:17;19.60;78.90
431;DHT22;202;48.764;9.172;2023-07-29T02:36:44;19.50;79.70
431;DHT22;202;48.764;9.172;2023-07-29T02:39:12;19.60;78.80
431;DHT22;202;48.764;9.172;2023-07-29T02:41:42;19.50;80.40
431;DHT22;202;48.764;9.172;2023-07-29T02:44:09;19.60;79.90
431;DHT22;202;48.764;9.172;2023-07-29T02:46:41;19.60;78.30
431;DHT22;202;48.764;9.172;2023-07-29T02:49:10;19.60;78.30
431;DHT22;202;48.764;9.172;2023-07-29T02:51:38;19.60;77.90
431;DHT22;202;48.764;9.172;2023-07-29T02:54:06;19.70;77.70
431;DHT22;202;48.764;9.172;2023-07-29T02:56:33;19.80;77.40
431;DHT22;202;48.764;9.172;2023-07-29T02:59:00;19.80;77.00
431;DHT22;202;48.764;9.172;2023-07-29T03:01:27;19.80;75.70
431;DHT22;202;48.764;9.172;2023-07-29T03:03:54;20.00;74.30
431;DHT22;202;48.764;9.172;2023-07-29T03:06:24;19.90;74.20
431;DHT22;202;48.764;9.172;2023-07-29T03:08:51;20.00;73.50
431;DHT22;202;48.764;9.172;2023-07-29T03:11:18;20.00;73.20
431;DHT22;202;48.764;9.172;2023-07-29T03:13:45;20.00;72.30
431;DHT22;202;48.764;9.172;2023-07-29T03:16:15;20.00;72.60
431;DHT22;202;48.764;9.172;2023-07-29T03:18:43;20.00;72.30
431;DHT22;202;48.764;9.172;2023-07-29T03:21:11;19.90;72.40
431;DHT22;202;48.764;9.172;2023-07-29T03:23:39;20.00;73.10
431;DHT22;202;48.764;9.172;2023-07-29T03:26:07;20.00;72.90
431;DHT22;202;48.764;9.172;2023-07-29T03:28:38;19.90;72.20
431;DHT22;202;48.764;9.172;2023-07-29T03:31:10;20.00;72.30
431;DHT22;202;48.764;9.172;2023-07-29T03:33:37;19.90;72.30
431;DHT22;202;48.764;9.172;2023-07-29T03:36:05;19.80;72.10
431;DHT22;202;48.764;9.172;2023-07-29T03:38:31;19.90;72.20
431;DHT22;202;48.764;9.172;2023-07-29T03:41:02;19.80;73.00
431;DHT22;202;48.764;9.172;2023-07-29T03:43:32;19.80;72.30
431;DHT22;202;48.764;9.172;2023-07-29T03:46:00;19.80;73.20
431;DHT22;202;48.764;9.172;2023-07-29T03:48:27;19.70;74.20
431;DHT22;202;48.764;9.172;2023-07-29T03:50:54;19.60;74.60
431;DHT22;202;48.764;9.172;2023-07-29T03:53:21;19.70;74.50
431;DHT22;202;48.764;9.172;2023-07-29T03:55:48;19.70;74.80
431;DHT22;202;48.764;9.172;2023-07-29T03:58:19;19.70;75.00
431;DHT22;202;48.764;9.172;2023-07-29T04:00:46;19.70;74.90
431;DHT22;202;48.764;9.172;2023-07-29T04:03:13;19.70;75.30
431;DHT22;202;48.764;9.172;2023-07-29T04:05:41;19.70;76.30
431;DHT22;202;48.764;9.172;2023-07-29T04:08:08;19.70;77.00
431;DHT22;202;48.764;9.172;2023-07-29T04:10:35;19.70;76.90
431;DHT22;202;48.764;9.172;2023-07-29T04:13:03;19.60;80.00
431;DHT22;202;48.764;9.172;2023-07-29T04:15:32;19.60;80.10
431;DHT22;202;48.764;9.172;2023-07-29T04:17:58;19.60;79.50
431;DHT22;202;48.764;9.172;2023-07-29T04:20:25;19.60;79.50
431;DHT22;202;48.764;9.172;2023-07-29T04:22:52;19.50;80.40
431;DHT22;202;48.764;9.172;2023-07-29T04:25:19;19.50;81.60
431;DHT22;202;48.764;9.172;2023-07-29T04:27:46;19.50;81.50
431;DHT22;202;48.764;9.172;2023-07-29T04:30:13;19.60;81.20
431;DHT22;202;48.764;9.172;2023-07-29T04:32:42;19.60;80.90
431;DHT22;202;48.764;9.172;2023-07-29T04:35:10;19.70;81.70
431;DHT22;202;48.764;9.172;2023-07-29T04:37:37;19.70;81.20
431;DHT22;202;48.764;9.172;2023-07-29T04:40:05;19.70;80.30
431;DHT22;202;48.764;9.172;2023-07-29T04:42:32;19.70;80.40
431;DHT22;202;48.764;9.172;2023-07-29T04:44:59;19.70;80.60
431;DHT22;202;48.764;9.172;2023-07-29T04:47:26;19.70;81.70
431;DHT22;202;48.764;9.172;2023-07-29T04:49:55;19.70;82.50
431;DHT22;202;48.764;9.172;2023-07-29T04:52:21;19.60;83.60
431;DHT22;202;48.764;9.172;2023-07-29T04:54:48;19.70;84.20
431;DHT22;202;48.764;9.172;2023-07-29T04:57:15;19.80;83.70
431;DHT22;202;48.764;9.172;2023-07-29T04:59:42;19.70;85.20
431;DHT22;202;48.764;9.172;2023-07-29T05:02:09;19.80;85.00
431;DHT22;202;48.764;9.172;2023-07-29T05:04:36;19.80;84.10
431;DHT22;202;48.764;9.172;2023-07-29T05:07:04;19.70;85.40
431;DHT22;202;48.764;9.172;2023-07-29T05:09:31;19.70;85.00
431;DHT22;202;48.764;9.172;2023-07-29T05:11:58;19.60;86.30
431;DHT22;202;48.764;9.172;2023-07-29T05:14:25;19.60;86.30
431;DHT22;202;48.764;9.172;2023-07-29T05:16:52;19.40;85.80
431;DHT22;202;48.764;9.172;2023-07-29T05:22:58;19.30;90.00
431;DHT22;202;48.764;9.172;2023-07-29T05:25:29;19.40;89.40
431;DHT22;202;48.764;9.172;2023-07-29T05:28:00;19.40;88.50
431;DHT22;202;48.764;9.172;2023-07-29T05:30:32;19.40;88.50
431;DHT22;202;48.764;9.172;2023-07-29T05:33:25;19.60;86.80
431;DHT22;202;48.764;9.172;2023-07-29T05:36:13;19.60;86.00
431;DHT22;202;48.764;9.172;2023-07-29T05:39:10;19.60;86.10
431;DHT22;202;48.764;9.172;2023-07-29T05:41:57;19.60;86.30
431;DHT22;202;48.764;9.172;2023-07-29T05:45:07;19.60;86.90
431;DHT22;202;48.764;9.172;2023-07-29T06:26:15;20.50;84.70
431;DHT22;202;48.764;9.172;2023-07-29T06:28:42;20.70;85.80
431;DHT22;202;48.764;9.172;2023-07-29T06:31:12;20.80;82.20
431;DHT22;202;48.764;9.172;2023-07-29T06:33:39;20.90;80.30
431;DHT22;202;48.764;9.172;2023-07-29T06:36:06;21.00;81.20
431;DHT22;202;48.764;9.172;2023-07-29T06:38:36;21.00;80.70
431;DHT22;202;48.764;9.172;2023-07-29T06:41:07;20.90;80.10
431;DHT22;202;48.764;9.172;2023-07-29T06:43:49;20.90;80.20
431;DHT22;202;48.764;9.172;2023-07-29T06:46:16;20.90;80.00
431;DHT22;202;48.764;9.172;2023-07-29T06:48:43;20.90;80.90
431;DHT22;202;48.764;9.172;2023-07-29T06:51:15;20.90;80.20
431;DHT22;202;48.764;9.172;2023-07-29T06:53:45;20.90;80.90
431;DHT22;202;48.764;9.172;2023-07-29T06:56:12;20.90;81.40
431;DHT22;202;48.764;9.172;2023-07-29T06:58:39;20.90;80.80
431;DHT22;202;48.764;9.172;2023-07-29T07:01:07;21.00;81.40
431;DHT22;202;48.764;9.172;2023-07-29T07:03:35;21.00;79.50
431;DHT22;202;48.764;9.172;2023-07-29T07:06:02;21.10;78.90
431;DHT22;202;48.764;9.172;2023-07-29T07:08:31;21.00;78.80
431;DHT22;202;48.764;9.172;2023-07-29T07:10:57;21.00;79.60
431;DHT22;202;48.764;9.172;2023-07-29T07:13:27;20.90;79.90
431;DHT22;202;48.764;9.172;2023-07-29T07:15:55;20.90;79.60
431;DHT22;202;48.764;9.172;2023-07-29T07:18:23;20.90;80.60
431;DHT22;202;48.764;9.172;2023-07-29T07:20:50;20.80;81.60
431;DHT22;202;48.764;9.172;2023-07-29T07:23:18;20.80;81.80
431;DHT22;202;48.764;9.172;2023-07-29T07:25:44;20.80;82.00
431;DHT22;202;48.764;9.172;2023-07-29T07:28:11;20.80;82.80
431;DHT22;202;48.764;9.172;2023-07-29T07:30:40;20.80;83.00
431;DHT22;202;48.764;9.172;2023-07-29T07:33:07;20.80;82.80
431;DHT22;202;48.764;9.172;2023-07-29T07:35:36;20.80;80.80
431;DHT22;202;48.764;9.172;2023-07-29T07:38:03;20.70;78.50
431;DHT22;202;48.764;9.172;2023-07-29T07:40:33;20.70;80.50
431;DHT22;202;48.764;9.172;2023-07-29T07:43:03;20.80;81.50
431;DHT22;202;48.764;9.172;2023-07-29T07:45:31;20.80;80.80
431;DHT22;202;48.764;9.172;2023-07-29T07:47:58;20.90;80.60
431;DHT22;202;48.764;9.172;2023-07-29T07:50:29;20.90;81.30
431;DHT22;202;48.764;9.172;2023-07-29T07:52:58;20.90;82.10
431;DHT22;202;48.764;9.172;2023-07-29T07:55:27;20.80;82.10
431;DHT22;202;48.764;9.172;2023-07-29T07:58:00;20.80;80.90
431;DHT22;202;48.764;9.172;2023-07-29T08:00:41;20.80;82.80
431;DHT22;202;48.764;9.172;2023-07-29T08:03:15;20.90;81.70
431;DHT22;202;48.764;9.172;2023-07-29T08:06:01;21.00;82.70
431;DHT22;202;48.764;9.172;2023-07-29T08:12:18;21.30;78.50
431;DHT22;202;48.764;9.172;2023-07-29T08:15:02;21.30;78.40
431;DHT22;202;48.764;9.172;2023-07-29T08:17:46;21.40;78.60
431;DHT22;202;48.764;9.172;2023-07-29T08:20:14;21.50;78.40
431;DHT22;202;48.764;9.172;2023-07-29T08:23:10;21.60;77.30
431;DHT22;202;48.764;9.172;2023-07-29T08:26:07;21.70;74.60
431;DHT22;202;48.764;9.172;2023-07-29T09:23:16;23.70;56.80
431;DHT22;202;48.764;9.172;2023-07-29T09:29:28;24.10;59.80
431;DHT22;202;48.764;9.172;2023-07-29T09:32:45;24.20;57.10
431;DHT22;202;48.764;9.172;2023-07-29T21:02:29;22.30;55.90
431;DHT22;202;48.764;9.172;2023-07-29T21:05:37;22.30;55.80
431;DHT22;202;48.764;9.172;2023-07-29T21:08:59;22.30;55.80
431;DHT22;202;48.764;9.172;2023-07-29T21:11:32;22.20;55.70
431;DHT22;202;48.764;9.172;2023-07-29T21:32:22;22.40;54.70
431;DHT22;202;48.764;9.172;2023-07-29T21:35:05;22.40;54.90
431;DHT22;202;48.764;9.172;2023-07-29T21:37:44;22.50;54.90
431;DHT22;202;48.764;9.172;2023-07-29T21:40:19;22.50;54.80
431;DHT22;202;48.764;9.172;2023-07-29T21:43:03;22.50;54.60
431;DHT22;202;48.764;9.172;2023-07-29T21:56:25;22.40;55.50
431;DHT22;202;48.764;9.172;2023-07-29T21:59:15;22.40;55.70
431;DHT22;202;48.764;9.172;2023-07-29T22:02:08;22.30;56.10
431;DHT22;202;48.764;9.172;2023-07-29T22:04:57;22.30;56.30
431;DHT22;202;48.764;9.172;2023-07-29T22:07:34;22.20;57.00
431;DHT22;202;48.764;9.172;2023-07-29T22:10:17;22.20;57.20
431;DHT22;202;48.764;9.172;2023-07-29T22:12:55;22.20;57.40
431;DHT22;202;48.764;9.172;2023-07-29T22:15:42;22.00;58.60
431;DHT22;202;48.764;9.172;2023-07-29T22:18:49;22.00;59.60
431;DHT22;202;48.764;9.172;2023-07-29T22:32:20;21.80;62.30
431;DHT22;202;48.764;9.172;2023-07-29T22:42:10;21.90;66.50
431;DHT22;202;48.764;9.172;2023-07-29T22:45:24;21.90;67.10
431;DHT22;202;48.764;9.172;2023-07-29T22:48:21;21.90;69.20
431;DHT22;202;48.764;9.172;2023-07-29T22:54:24;21.50;73.80
431;DHT22;202;48.764;9.172;2023-07-29T22:57:03;21.50;73.40
431;DHT22;202;48.764;9.172;2023-07-29T22:59:51;21.50;73.20
431;DHT22;202;48.764;9.172;2023-07-29T23:02:20;21.50;73.90
431;DHT22;202;48.764;9.172;2023-07-29T23:04:49;21.60;76.60
431;DHT22;202;48.764;9.172;2023-07-29T23:07:22;21.40;77.90
431;DHT22;202;48.764;9.172;2023-07-29T23:09:58;21.20;81.90
431;DHT22;202;48.764;9.172;2023-07-29T23:12:25;21.20;82.20
431;DHT22;202;48.764;9.172;2023-07-29T23:14:52;21.10;84.40
431;DHT22;202;48.764;9.172;2023-07-29T23:17:19;21.00;84.60
431;DHT22;202;48.764;9.172;2023-07-29T23:19:48;21.10;83.10
431;DHT22;202;48.764;9.172;2023-07-29T23:22:15;21.10;84.30
431;DHT22;202;48.764;9.172;2023-07-29T23:24:42;21.20;85.20
431;DHT22;202;48.764;9.172;2023-07-29T23:27:26;21.10;86.60
431;DHT22;202;48.764;9.172;2023-07-29T23:29:57;21.20;86.10
431;DHT22;202;48.764;9.172;2023-07-29T23:32:41;21.20;85.90
431;DHT22;202;48.764;9.172;2023-07-29T23:35:29;21.20;83.80
431;DHT22;202;48.764;9.172;2023-07-29T23:38:32;21.10;82.20
431;DHT22;202;48.764;9.172;2023-07-29T23:41:04;21.00;80.70
431;DHT22;202;48.764;9.172;2023-07-29T23:43:37;20.80;81.60
431;DHT22;202;48.764;9.172;2023-07-29T23:46:07;20.70;80.10
431;DHT22;202;48.764;9.172;2023-07-29T23:48:42;20.50;78.10
431;DHT22;202;48.764;9.172;2023-07-29T23:51:18;20.40;75.90
431;DHT22;202;48.764;9.172;2023-07-29T23:53:48;20.40;77.40
431;DHT22;202;48.764;9.172;2023-07-29T23:56:21;20.50;79.10
431;DHT22;202;48.764;9.172;2023-07-29T23:59:05;20.50;80.10
